Time;durP1;ratioP1;P1;durP2;ratioP2;P2;SDS_P1;SDS_P2;PMS_P1;PMS_P2;Temp;Humidity;BMP_temperature;BMP_pressure;BME280_temperature;BME280_humidity;BME280_pressure;Samples;Min_cycle;Max_cycle;Signal;HPM_P1;HPM_P2
2022/08/17 00:01:24;;;;;;;8.48;3.45;;;;;;;8.75;100.00;101321.56;4951253;28;20035;-87
2022/08/17 00:03:56;;;;;;;6.45;3.15;;;;;;;8.74;100.00;101319.91;4959009;28;20034;-87
2022/08/17 00:06:27;;;;;;;9.88;3.75;;;;;;;8.69;100.00;101328.38;4952142;28;20088;-86
2022/08/17 00:08:56;;;;;;;12.40;4.43;;;;;;;8.61;100.00;101322.94;4946243;28;20092;-86
2022/08/17 00:11:31;;;;;;;9.15;3.45;;;;;;;8.49;100.00;101316.06;4956881;28;20038;-86
2022/08/17 00:14:01;;;;;;;7.35;3.78;;;;;;;8.31;100.00;101282.00;4969035;28;20026;-87
2022/08/17 00:16:33;;;;;;;8.52;3.92;;;;;;;8.44;100.00;101321.91;4966302;28;20081;-86
2022/08/17 00:19:03;;;;;;;7.88;3.90;;;;;;;8.34;100.00;101308.50;4983066;28;20042;-85
2022/08/17 00:21:30;;;;;;;9.07;4.03;;;;;;;8.36;100.00;101319.91;4957630;28;20488;-87
2022/08/17 00:23:55;;;;;;;6.90;3.80;;;;;;;8.15;100.00;101285.31;4965545;28;20042;-86
2022/08/17 00:26:24;;;;;;;10.00;4.10;;;;;;;8.01;100.00;101277.75;4984075;28;20389;-85
2022/08/17 00:28:50;;;;;;;12.07;3.60;;;;;;;8.18;100.00;101302.94;4967232;28;20045;-86
2022/08/17 00:31:16;;;;;;;10.00;4.53;;;;;;;8.18;100.00;101313.66;4987636;28;20038;-86
2022/08/17 00:33:44;;;;;;;10.38;3.63;;;;;;;8.15;100.00;101303.22;4985051;28;20031;-85
2022/08/17 00:36:11;;;;;;;6.90;3.70;;;;;;;8.10;100.00;101297.47;4971672;28;20396;-87
2022/08/17 00:38:40;;;;;;;10.38;4.03;;;;;;;8.17;100.00;101303.06;4982311;28;20030;-86
2022/08/17 00:41:09;;;;;;;9.43;4.80;;;;;;;7.99;100.00;101294.94;5000129;28;20039;-87
2022/08/17 00:43:57;;;;;;;11.30;4.65;;;;;;;8.15;100.00;101319.31;4955449;28;20476;-87
2022/08/17 00:46:32;;;;;;;9.13;4.20;;;;;;;8.15;100.00;101287.16;4957467;28;20401;-86
2022/08/17 00:48:58;;;;;;;8.50;4.18;;;;;;;8.21;100.00;101293.75;4971176;28;20038;-86
2022/08/17 00:51:38;;;;;;;7.50;3.95;;;;;;;7.93;100.00;101270.44;4982907;28;20030;-87
2022/08/17 00:54:13;;;;;;;12.60;4.35;;;;;;;7.97;100.00;101288.91;4966914;28;20042;-86
2022/08/17 00:56:44;;;;;;;11.00;5.45;;;;;;;7.83;100.00;101275.00;4964728;28;20083;-86
2022/08/17 00:59:12;;;;;;;10.35;3.78;;;;;;;7.90;100.00;101305.53;4952008;28;20542;-86
2022/08/17 01:01:38;;;;;;;7.15;4.00;;;;;;;7.84;100.00;101302.63;4968449;28;20507;-86
2022/08/17 01:04:06;;;;;;;10.38;4.47;;;;;;;7.83;100.00;101295.56;4949162;28;20530;-86
2022/08/17 01:06:32;;;;;;;11.52;4.32;;;;;;;7.61;100.00;101264.63;4945801;28;20031;-85
2022/08/17 01:08:58;;;;;;;16.45;3.70;;;;;;;7.71;100.00;101292.22;4978389;28;20049;-85
2022/08/17 01:11:25;;;;;;;8.95;4.00;;;;;;;7.66;100.00;101300.66;4962032;28;20029;-86
2022/08/17 01:13:51;;;;;;;11.98;4.75;;;;;;;7.39;100.00;101265.78;4944058;28;21278;-84
2022/08/17 01:16:25;;;;;;;8.48;3.25;;;;;;;7.47;100.00;101280.13;4969903;28;20046;-85
2022/08/17 01:18:58;;;;;;;7.82;4.00;;;;;;;7.53;100.00;101285.91;4962690;28;20062;-87
2022/08/17 01:21:57;;;;;;;14.00;4.93;;;;;;;7.63;100.00;101302.78;4969147;28;20396;-85
2022/08/17 01:24:25;;;;;;;10.30;4.32;;;;;;;7.54;100.00;101282.22;4978836;28;20057;-86
2022/08/17 01:26:52;;;;;;;8.95;4.10;;;;;;;7.58;100.00;101297.03;4979438;28;20042;-86
2022/08/17 01:29:19;;;;;;;7.90;4.65;;;;;;;7.47;100.00;101295.34;4980807;28;20073;-85
2022/08/17 01:31:49;;;;;;;13.13;4.65;;;;;;;7.45;100.00;101279.44;4952993;28;20038;-85
2022/08/17 01:34:16;;;;;;;9.00;4.38;;;;;;;7.48;100.00;101307.72;4951416;28;20030;-85
2022/08/17 01:36:45;;;;;;;13.10;4.55;;;;;;;7.43;100.00;101310.81;4967760;28;20092;-85
2022/08/17 01:39:20;;;;;;;10.38;4.47;;;;;;;7.35;100.00;101308.00;4960414;28;21585;-85
2022/08/17 01:42:11;;;;;;;8.90;4.00;;;;;;;7.29;100.00;101308.59;4960590;28;20035;-86
2022/08/17 01:44:40;;;;;;;10.80;4.17;;;;;;;6.99;100.00;101269.47;4959526;28;20154;-88
2022/08/17 01:47:06;;;;;;;11.02;3.92;;;;;;;7.09;100.00;101299.69;4951820;28;20303;-85
2022/08/17 01:49:33;;;;;;;11.45;4.88;;;;;;;7.02;100.00;101302.09;4959015;28;20126;-86
2022/08/17 01:52:09;;;;;;;10.80;4.40;;;;;;;6.89;100.00;101306.88;4976497;28;20483;-85
2022/08/17 01:54:37;;;;;;;9.75;3.90;;;;;;;6.56;100.00;101284.88;4964694;28;20038;-85
2022/08/17 01:57:06;;;;;;;11.93;4.28;;;;;;;6.43;100.00;101302.97;4945375;28;20145;-85
2022/08/17 01:59:32;;;;;;;8.90;3.95;;;;;;;6.34;100.00;101304.63;4965424;28;20138;-85
2022/08/17 02:01:59;;;;;;;11.27;4.10;;;;;;;6.29;100.00;101292.66;4946774;28;20039;-86
2022/08/17 02:04:25;;;;;;;8.50;4.38;;;;;;;6.29;100.00;101284.63;4966371;28;20061;-84
2022/08/17 02:06:51;;;;;;;11.35;4.57;;;;;;;6.16;100.00;101277.69;4969924;28;20081;-85
2022/08/17 02:09:27;;;;;;;11.88;4.75;;;;;;;6.15;100.00;101280.50;4963906;28;20611;-85
2022/08/17 02:12:04;;;;;;;10.05;4.50;;;;;;;6.02;100.00;101280.72;4946808;28;20049;-85
2022/08/17 02:14:30;;;;;;;8.25;3.97;;;;;;;6.16;100.00;101288.38;4949019;28;20046;-84
2022/08/17 02:16:56;;;;;;;14.27;5.30;;;;;;;6.29;100.00;101287.31;4945626;28;20093;-85
2022/08/17 02:19:22;;;;;;;10.82;4.30;;;;;;;6.32;100.00;101271.00;4963607;28;20042;-84
2022/08/17 02:21:52;;;;;;;8.68;3.88;;;;;;;6.31;100.00;101266.66;4978008;28;20181;-85
2022/08/17 02:24:21;;;;;;;14.20;4.78;;;;;;;6.28;100.00;101237.56;4949774;28;20035;-85
2022/08/17 02:26:49;;;;;;;10.02;4.75;;;;;;;6.75;100.00;101294.75;4946949;28;20049;-84
2022/08/17 02:29:18;;;;;;;9.00;4.53;;;;;;;6.82;100.00;101295.03;4966658;28;20384;-86
2022/08/17 02:31:44;;;;;;;10.18;4.13;;;;;;;6.82;100.00;101282.50;4947922;28;20048;-84
2022/08/17 02:34:13;;;;;;;9.70;4.55;;;;;;;6.91;100.00;101299.56;4945897;28;20626;-84
2022/08/17 02:36:42;;;;;;;12.57;5.10;;;;;;;6.98;100.00;101287.31;4984820;28;20037;-84
2022/08/17 02:39:12;;;;;;;18.73;5.07;;;;;;;7.01;100.00;101272.81;4962826;28;20052;-86
2022/08/17 02:41:39;;;;;;;13.23;6.40;;;;;;;7.30;100.00;101296.88;4946672;28;20085;-85
2022/08/17 02:44:05;;;;;;;13.50;4.28;;;;;;;7.34;100.00;101302.81;4967110;28;20033;-86
2022/08/17 02:46:32;;;;;;;8.48;5.53;;;;;;;7.32;100.00;101297.59;4968224;28;20033;-85
2022/08/17 02:48:58;;;;;;;11.82;5.05;;;;;;;7.32;100.00;101286.91;4960215;28;20108;-85
2022/08/17 02:51:25;;;;;;;13.85;5.57;;;;;;;7.38;100.00;101286.34;4952694;28;20047;-85
2022/08/17 02:53:51;;;;;;;13.20;5.32;;;;;;;7.53;100.00;101288.59;4970767;28;20057;-86
2022/08/17 02:56:19;;;;;;;14.02;5.20;;;;;;;7.62;100.00;101301.97;4975957;28;20472;-86
2022/08/17 02:58:45;;;;;;;13.45;7.85;;;;;;;7.59;100.00;101269.25;4939445;28;20122;-87
2022/08/17 03:01:15;;;;;;;10.52;6.55;;;;;;;7.80;100.00;101291.34;4964099;28;20392;-86
2022/08/17 03:03:41;;;;;;;11.68;4.65;;;;;;;7.84;100.00;101306.13;4943285;28;20062;-85
2022/08/17 03:06:07;;;;;;;13.70;6.47;;;;;;;7.70;100.00;101298.56;4947771;28;20491;-85
2022/08/17 03:08:36;;;;;;;12.18;5.90;;;;;;;7.80;100.00;101307.41;4964524;28;20034;-85
2022/08/17 03:11:03;;;;;;;11.30;5.47;;;;;;;7.77;100.00;101301.50;4961713;28;20038;-85
2022/08/17 03:13:29;;;;;;;16.73;5.65;;;;;;;7.75;100.00;101301.63;4961325;28;20037;-87
2022/08/17 03:15:55;;;;;;;12.55;6.43;;;;;;;7.83;100.00;101301.78;4944137;28;20177;-85
2022/08/17 03:18:22;;;;;;;15.23;4.57;;;;;;;7.72;100.00;101285.84;4981261;28;20080;-85
2022/08/17 03:20:48;;;;;;;12.75;5.63;;;;;;;7.76;100.00;101281.91;4973433;28;20492;-85
2022/08/17 03:23:17;;;;;;;16.25;6.75;;;;;;;7.78;100.00;101306.72;4982883;28;20035;-85
2022/08/17 03:25:45;;;;;;;8.48;3.63;;;;;;;7.60;100.00;101289.72;4945244;28;20947;-86
2022/08/17 03:28:11;;;;;;;13.90;5.18;;;;;;;7.60;100.00;101295.91;4965553;28;20416;-86
2022/08/17 03:30:37;;;;;;;14.13;4.95;;;;;;;7.52;100.00;101279.72;4971527;28;20026;-86
2022/08/17 03:33:09;;;;;;;15.02;5.40;;;;;;;7.60;100.00;101290.53;4954179;28;20069;-85
2022/08/17 03:35:36;;;;;;;11.40;4.65;;;;;;;7.62;100.00;101315.34;4989901;28;20042;-86
2022/08/17 03:38:03;;;;;;;12.27;5.10;;;;;;;7.55;100.00;101314.22;4985747;28;20038;-86
2022/08/17 03:40:33;;;;;;;16.30;5.80;;;;;;;7.19;100.00;101268.47;4968582;28;20101;-85
2022/08/17 03:43:06;;;;;;;16.58;5.28;;;;;;;7.26;100.00;101293.66;4952445;28;20435;-85
2022/08/17 03:56:41;;;;;;;10.15;5.55;;;;;;;7.12;100.00;101295.91;4978130;28;20048;-86
2022/08/17 03:59:07;;;;;;;10.02;3.80;;;;;;;6.93;100.00;101289.59;4955213;28;20035;-87
2022/08/17 04:01:33;;;;;;;12.75;5.28;;;;;;;7.20;100.00;101301.44;4963935;28;20042;-85
2022/08/17 04:03:58;;;;;;;15.60;5.03;;;;;;;7.20;100.00;101304.09;4967905;28;20361;-85
2022/08/17 04:06:25;;;;;;;17.90;5.45;;;;;;;7.02;100.00;101293.25;4973390;28;20472;-87
2022/08/17 04:08:51;;;;;;;14.15;4.85;;;;;;;6.91;100.00;101312.94;4981859;28;20117;-86
2022/08/17 04:11:16;;;;;;;15.60;5.25;;;;;;;6.70;100.00;101310.34;4950758;28;20037;-86
2022/08/17 04:13:42;;;;;;;14.38;5.00;;;;;;;6.55;100.00;101309.03;4964231;28;20050;-85
2022/08/17 04:16:11;;;;;;;16.77;5.55;;;;;;;6.24;100.00;101285.03;4984234;28;20034;-86
2022/08/17 04:18:37;;;;;;;11.85;5.15;;;;;;;6.28;100.00;101320.34;4962721;28;20048;-85
2022/08/17 04:21:03;;;;;;;13.60;5.55;;;;;;;6.04;100.00;101315.31;4959283;28;20042;-86
2022/08/17 04:23:32;;;;;;;10.48;4.70;;;;;;;5.89;100.00;101323.63;4966257;28;20030;-86
2022/08/17 04:25:58;;;;;;;15.55;5.53;;;;;;;5.79;100.00;101325.38;4950213;28;20043;-85
2022/08/17 04:28:24;;;;;;;12.75;4.88;;;;;;;6.00;100.00;101320.06;4960292;28;20103;-84
2022/08/17 04:30:51;;;;;;;13.25;4.65;;;;;;;6.12;100.00;101313.66;4965459;28;20446;-86
2022/08/17 04:33:23;;;;;;;11.82;4.88;;;;;;;6.05;100.00;101317.00;4965518;28;20057;-85
2022/08/17 04:36:00;;;;;;;19.55;5.93;;;;;;;6.07;100.00;101321.22;4965144;28;20086;-85
2022/08/17 04:38:28;;;;;;;14.50;5.68;;;;;;;6.09;100.00;101319.28;4955969;28;20042;-85
2022/08/17 04:43:41;;;;;;;11.93;4.85;;;;;;;5.94;100.00;101323.25;4955843;28;20069;-85
2022/08/17 04:46:15;;;;;;;14.45;5.03;;;;;;;5.79;100.00;101335.22;4955720;28;20037;-86
2022/08/17 04:48:53;;;;;;;15.10;5.32;;;;;;;5.62;100.00;101332.16;4974541;28;20786;-84
2022/08/17 04:51:39;;;;;;;12.00;5.18;;;;;;;5.59;100.00;101335.09;4962951;28;20692;-85
2022/08/17 04:54:08;;;;;;;14.63;5.55;;;;;;;5.50;100.00;101330.50;4959151;28;20060;-85
2022/08/17 04:56:35;;;;;;;14.52;4.55;;;;;;;5.72;100.00;101335.75;4965237;28;20027;-86
2022/08/17 04:59:07;;;;;;;16.38;5.00;;;;;;;5.93;100.00;101330.44;4960838;28;20043;-86
2022/08/17 05:01:35;;;;;;;18.80;5.78;;;;;;;6.11;100.00;101345.81;4942645;28;20510;-85
2022/08/17 05:04:04;;;;;;;13.95;5.38;;;;;;;6.24;100.00;101329.59;4960961;28;20046;-86
2022/08/17 05:06:30;;;;;;;17.45;6.03;;;;;;;6.43;100.00;101342.19;4943755;28;20373;-86
2022/08/17 05:08:57;;;;;;;6.25;3.83;;;;;;;6.39;100.00;101323.75;4976943;28;20073;-86
2022/08/17 05:11:25;;;;;;;10.65;5.03;;;;;;;6.48;100.00;101332.78;4947310;28;20032;-85
2022/08/17 05:13:51;;;;;;;19.15;6.28;;;;;;;6.60;100.00;101336.22;4940802;28;20089;-85
2022/08/17 05:16:19;;;;;;;15.18;6.25;;;;;;;6.63;100.00;101327.06;4961238;28;20083;-85
2022/08/17 05:18:46;;;;;;;19.98;6.43;;;;;;;6.64;100.00;101324.25;4945235;28;20046;-86
2022/08/17 05:21:12;;;;;;;20.55;5.97;;;;;;;6.57;100.00;101329.31;4945618;28;20051;-86
2022/08/17 05:23:39;;;;;;;17.90;6.85;;;;;;;6.60;100.00;101323.69;4943141;28;20076;-85
2022/08/17 05:26:06;;;;;;;19.08;7.22;;;;;;;6.46;100.00;101313.38;4947789;28;20671;-87
2022/08/17 05:28:32;;;;;;;15.13;6.00;;;;;;;6.34;100.00;101322.47;4969105;28;20033;-86
2022/08/17 05:34:22;;;;;;;17.30;5.80;;;;;;;6.25;100.00;101323.28;4992909;28;20061;-85
2022/08/17 05:36:49;;;;;;;15.05;4.60;;;;;;;6.29;100.00;101322.03;4952367;28;20464;-85
2022/08/17 05:39:15;;;;;;;17.65;5.47;;;;;;;6.28;100.00;101313.16;4960811;28;20030;-85
2022/08/17 05:41:41;;;;;;;18.60;6.55;;;;;;;6.37;100.00;101316.84;4957170;28;20042;-85
2022/08/17 05:44:06;;;;;;;17.33;6.38;;;;;;;6.45;100.00;101311.69;4942795;28;20033;-86
2022/08/17 05:46:35;;;;;;;17.88;5.80;;;;;;;6.45;100.00;101270.75;4960369;28;20040;-84
2022/08/17 05:49:06;;;;;;;13.32;5.05;;;;;;;7.28;100.00;101312.25;4966053;28;20026;-86
2022/08/17 05:51:38;;;;;;;15.95;5.78;;;;;;;7.52;100.00;101324.38;4981345;28;20034;-85
2022/08/17 05:54:28;;;;;;;16.10;6.05;;;;;;;7.39;100.00;101314.78;4965236;28;20392;-85
2022/08/17 05:57:29;;;;;;;17.02;6.18;;;;;;;7.37;100.00;101332.81;4959781;28;20029;-84
2022/08/17 06:00:19;;;;;;;22.53;6.97;;;;;;;7.37;100.00;101332.81;4960602;28;20042;-85
2022/08/17 06:03:12;;;;;;;18.55;5.95;;;;;;;7.24;100.00;101327.72;4955248;28;20046;-85
2022/08/17 06:05:50;;;;;;;14.82;5.95;;;;;;;7.17;100.00;101333.78;4978750;28;20096;-85
2022/08/17 06:08:41;;;;;;;16.95;6.25;;;;;;;7.17;100.00;101339.13;4958026;28;20034;-85
2022/08/17 06:11:37;;;;;;;17.25;5.78;;;;;;;7.10;100.00;101316.63;4942904;28;20436;-86
2022/08/17 06:14:06;;;;;;;15.85;5.15;;;;;;;7.36;100.00;101339.16;4956810;28;20054;-85
2022/08/17 06:16:36;;;;;;;20.08;6.20;;;;;;;7.45;100.00;101334.78;4958150;28;20036;-84
2022/08/17 06:19:04;;;;;;;17.33;7.32;;;;;;;7.59;100.00;101333.50;4941608;28;20405;-84
2022/08/17 06:21:35;;;;;;;18.58;6.47;;;;;;;7.73;100.00;101338.44;4962004;28;20521;-84
2022/08/17 06:24:14;;;;;;;21.08;7.60;;;;;;;7.79;100.00;101342.34;4961036;28;20528;-85
2022/08/17 06:26:44;;;;;;;18.92;6.38;;;;;;;7.79;100.00;101319.09;4966629;28;20039;-86
2022/08/17 06:29:36;;;;;;;25.70;6.72;;;;;;;7.87;100.00;101303.16;4946945;28;20530;-84
2022/08/17 06:32:05;;;;;;;20.38;5.97;;;;;;;8.25;100.00;101344.19;4968693;28;20484;-85
2022/08/17 06:34:32;;;;;;;26.25;6.97;;;;;;;8.32;100.00;101331.06;4952005;28;20484;-85
2022/08/17 06:37:32;;;;;;;20.48;6.47;;;;;;;8.66;100.00;101352.81;4980050;28;20034;-86
2022/08/17 06:40:16;;;;;;;25.83;7.55;;;;;;;8.73;100.00;101337.84;4959594;28;20158;-85
2022/08/17 06:42:46;;;;;;;15.90;6.07;;;;;;;8.92;100.00;101354.81;4975510;28;20088;-85
2022/08/17 06:45:20;;;;;;;25.70;8.23;;;;;;;9.04;100.00;101348.22;4952986;28;20062;-85
2022/08/17 06:48:06;;;;;;;23.40;7.07;;;;;;;9.26;100.00;101352.28;4967194;28;20048;-85
2022/08/17 06:50:37;;;;;;;27.75;6.35;;;;;;;9.25;100.00;101321.94;4955345;28;20035;-85
2022/08/17 06:53:20;;;;;;;20.67;6.85;;;;;;;9.52;100.00;101348.84;4963597;28;20041;-85
2022/08/17 06:55:59;;;;;;;18.00;6.45;;;;;;;9.56;100.00;101326.91;4954782;28;20041;-86
2022/08/17 06:58:30;;;;;;;25.08;9.82;;;;;;;9.86;100.00;101319.41;4952969;28;20093;-84
2022/08/17 07:00:59;;;;;;;16.40;5.60;;;;;;;10.15;100.00;101339.75;4968033;28;20038;-85
2022/08/17 07:03:36;;;;;;;24.05;7.13;;;;;;;10.25;100.00;101329.72;4962261;28;20042;-87
2022/08/17 07:06:05;;;;;;;23.63;7.32;;;;;;;10.33;100.00;101317.22;4953791;28;20105;-86
2022/08/17 07:08:57;;;;;;;15.23;4.70;;;;;;;11.21;100.00;101322.19;4986644;28;20034;-86
2022/08/17 07:11:33;;;;;;;24.80;6.63;;;;;;;12.86;100.00;101342.47;4967513;28;20026;-87
2022/08/17 07:14:22;;;;;;;25.17;7.15;;;;;;;14.13;95.58;101344.72;4997225;28;20034;-86
2022/08/17 07:16:53;;;;;;;12.82;4.55;;;;;;;15.94;83.85;101349.38;4954334;28;20073;-86
2022/08/17 07:19:24;;;;;;;22.33;6.18;;;;;;;17.10;77.10;101353.16;4941900;28;20633;-86
2022/08/17 07:22:12;;;;;;;16.95;5.50;;;;;;;18.10;70.35;101331.53;4980253;28;20038;-86
2022/08/17 07:24:51;;;;;;;22.63;6.43;;;;;;;18.68;65.25;101319.84;4981782;28;20081;-85
2022/08/17 07:27:27;;;;;;;20.60;6.15;;;;;;;19.02;62.04;101324.09;4955182;28;20042;-85
2022/08/17 07:30:05;;;;;;;16.45;5.88;;;;;;;19.44;60.90;101342.72;4965238;28;20080;-86
2022/08/17 07:32:43;;;;;;;16.58;5.93;;;;;;;19.96;58.41;101343.41;4975974;28;20054;-81
2022/08/17 07:35:12;;;;;;;14.02;5.47;;;;;;;20.30;55.23;101305.69;4977639;28;20050;-80
2022/08/17 07:37:51;;;;;;;17.83;5.75;;;;;;;21.13;54.29;101339.78;4967951;28;20039;-82
2022/08/17 07:40:22;;;;;;;7.82;4.10;;;;;;;21.51;49.23;101348.50;4964709;28;20046;-82
2022/08/17 07:43:25;;;;;;;13.18;4.80;;;;;;;21.53;50.02;101351.00;4973532;28;20030;-80
2022/08/17 07:48:39;;;;;;;11.73;4.03;;;;;;;21.95;47.57;101345.47;4975040;28;20050;-82
2022/08/17 07:51:14;;;;;;;9.75;3.97;;;;;;;22.11;43.49;101347.50;4954443;28;20101;-83
2022/08/17 07:53:40;;;;;;;11.52;4.32;;;;;;;22.07;45.89;101354.53;4983362;28;20042;-83
2022/08/17 07:56:06;;;;;;;17.02;6.47;;;;;;;21.93;44.99;101337.47;4944142;28;20462;-80
2022/08/17 07:58:34;;;;;;;11.30;4.13;;;;;;;21.99;45.93;101352.16;4959279;28;20477;-83
2022/08/17 08:01:10;;;;;;;11.25;3.78;;;;;;;21.94;44.59;101339.16;4981589;28;20034;-83
2022/08/17 08:03:41;;;;;;;7.43;4.25;;;;;;;21.74;45.64;101346.88;4972478;28;20031;-83
2022/08/17 08:06:21;;;;;;;9.18;3.85;;;;;;;21.97;43.65;101334.28;4989317;28;20323;-79
2022/08/17 08:08:53;;;;;;;14.90;4.30;;;;;;;22.52;43.54;101364.91;4975335;28;20185;-83
2022/08/17 08:11:32;;;;;;;9.65;3.72;;;;;;;22.96;41.10;101365.28;4988031;28;20026;-84
2022/08/17 08:14:20;;;;;;;9.48;3.47;;;;;;;23.06;40.86;101359.19;4970742;28;20476;-82
2022/08/17 08:17:01;;;;;;;10.95;3.45;;;;;;;23.27;40.63;101361.22;4964780;28;20039;-83
2022/08/17 08:19:28;;;;;;;7.30;2.78;;;;;;;23.53;40.21;101358.13;4971416;28;20045;-84
2022/08/17 08:22:01;;;;;;;7.85;3.63;;;;;;;23.68;38.60;101353.72;4991698;28;20481;-84
2022/08/17 08:24:36;;;;;;;;;;;;;;;23.66;38.57;101349.56;4974571;28;20031;-80
2022/08/17 08:27:25;;;;;;;6.78;3.58;;;;;;;23.84;38.56;101332.03;4982924;28;19973;-83
2022/08/17 08:30:09;;;;;;;11.25;3.20;;;;;;;24.00;37.55;101339.44;4994463;28;20065;-83
2022/08/17 08:33:07;;;;;;;8.32;3.22;;;;;;;24.08;37.39;101349.16;4985278;28;20038;-82
2022/08/17 08:35:46;;;;;;;6.55;3.63;;;;;;;24.32;36.59;101349.81;4980231;28;20046;-82
2022/08/17 08:38:26;;;;;;;5.72;3.08;;;;;;;24.38;36.95;101353.44;4980374;28;20046;-81
2022/08/17 08:40:58;;;;;;;7.07;3.70;;;;;;;24.40;37.46;101346.63;4976549;28;20058;-82
2022/08/17 08:44:15;;;;;;;7.20;2.90;;;;;;;24.64;36.85;101354.66;4986161;28;20038;-80
2022/08/17 08:46:53;;;;;;;8.18;4.05;;;;;;;24.73;37.80;101345.69;4995264;28;20073;-83
2022/08/17 08:49:38;;;;;;;6.20;3.17;;;;;;;24.99;35.73;101354.25;4991318;28;20387;-83
2022/08/17 08:52:10;;;;;;;8.63;2.42;;;;;;;25.01;35.81;101341.91;4972232;28;20026;-83
2022/08/17 08:54:52;;;;;;;6.72;3.67;;;;;;;25.44;35.89;101355.84;4976942;28;20035;-82
2022/08/17 08:57:22;;;;;;;7.45;3.80;;;;;;;25.93;35.43;101352.16;4986189;28;20056;-82
2022/08/17 09:00:13;;;;;;;6.07;3.38;;;;;;;26.27;33.45;101347.13;4983532;28;20043;-82
2022/08/17 09:03:05;;;;;;;7.85;2.97;;;;;;;26.02;34.16;101358.84;4983499;28;20476;-82
2022/08/17 09:05:39;;;;;;;4.10;2.75;;;;;;;24.02;35.69;101353.72;4970013;28;20062;-85
2022/08/17 09:08:11;;;;;;;5.78;3.30;;;;;;;25.13;35.84;101349.16;4991539;28;20480;-82
2022/08/17 09:11:02;;;;;;;6.35;2.63;;;;;;;22.75;38.82;101341.25;4978787;28;20397;-79
2022/08/17 09:13:50;;;;;;;7.55;3.03;;;;;;;23.35;38.46;101342.72;4950167;28;20038;-82
2022/08/17 09:16:31;;;;;;;7.63;2.85;;;;;;;24.86;35.44;101344.47;4955073;28;20050;-82
2022/08/17 09:19:29;;;;;;;6.10;2.30;;;;;;;24.59;35.87;101349.91;4984814;28;20038;-80
2022/08/17 09:22:30;;;;;;;4.85;2.70;;;;;;;26.25;31.48;101341.06;4950152;28;20503;-81
2022/08/17 09:25:15;;;;;;;;;;;;;;;26.49;31.81;101347.00;4966983;28;20030;-83
2022/08/17 09:27:49;;;;;;;5.43;2.65;;;;;;;26.63;32.09;101350.13;4969735;28;20375;-81
2022/08/17 09:30:17;;;;;;;6.35;3.10;;;;;;;26.51;32.42;101351.16;4966185;28;20041;-81
2022/08/17 09:32:50;;;;;;;6.82;2.70;;;;;;;25.15;34.92;101350.59;4955967;28;20088;-85
2022/08/17 09:35:34;;;;;;;6.65;3.25;;;;;;;26.41;33.89;101345.59;4976428;28;20030;-82
2022/08/17 09:38:27;;;;;;;5.03;3.30;;;;;;;25.84;32.66;101360.09;4967407;28;20038;-83
2022/08/17 09:41:00;;;;;;;6.70;3.58;;;;;;;26.81;31.39;101357.94;4949994;28;20030;-82
2022/08/17 09:43:31;;;;;;;4.65;2.67;;;;;;;27.52;30.72;101335.19;4978480;28;20034;-83
2022/08/17 09:46:24;;;;;;;3.92;2.33;;;;;;;28.03;28.77;101320.53;4982138;28;20104;-83
2022/08/17 09:49:10;;;;;;;4.70;2.50;;;;;;;28.18;27.40;101345.41;4974689;28;20572;-80
2022/08/17 09:51:40;;;;;;;4.40;2.25;;;;;;;28.22;28.50;101343.72;4949779;28;20034;-81
2022/08/17 09:54:17;;;;;;;8.55;5.05;;;;;;;28.25;27.77;101345.09;4985184;28;20026;-80
2022/08/17 09:56:49;;;;;;;5.80;2.80;;;;;;;28.58;27.63;101351.09;4980998;28;20041;-82
2022/08/17 09:59:26;;;;;;;5.55;2.90;;;;;;;27.56;29.23;101343.75;4977330;28;20039;-82
2022/08/17 10:02:42;;;;;;;5.80;2.15;;;;;;;25.42;31.45;101334.06;4961974;28;20489;-83
2022/08/17 10:05:20;;;;;;;4.85;2.15;;;;;;;27.68;29.81;101337.94;4970731;28;20484;-81
2022/08/17 10:08:08;;;;;;;5.82;2.90;;;;;;;28.67;27.88;101339.16;4952428;28;20039;-80
2022/08/17 10:10:58;;;;;;;3.90;2.38;;;;;;;28.74;27.62;101338.88;4976231;28;20065;-82
2022/08/17 10:13:33;;;;;;;4.45;2.05;;;;;;;29.16;27.51;101337.53;4982114;28;20034;-83
2022/08/17 10:16:22;;;;;;;4.38;2.00;;;;;;;29.02;26.04;101330.97;4970663;28;20125;-82
2022/08/17 10:19:00;;;;;;;5.07;2.47;;;;;;;28.79;26.92;101338.00;4987509;28;20093;-80
2022/08/17 10:27:18;;;;;;;4.05;2.22;;;;;;;29.17;24.92;101308.75;4986767;28;20141;-82
2022/08/17 10:29:47;;;;;;;7.03;2.50;;;;;;;29.11;25.84;101330.13;4962602;28;20484;-82
2022/08/17 10:32:21;;;;;;;4.60;2.20;;;;;;;28.15;26.02;101334.06;4959339;28;20091;-82
2022/08/17 10:35:19;;;;;;;2.95;1.80;;;;;;;23.66;31.94;101327.59;4973976;28;20045;-82
2022/08/17 10:37:47;;;;;;;4.80;2.38;;;;;;;26.28;29.12;101329.53;4989244;28;20046;-83
2022/08/17 10:40:31;;;;;;;4.25;2.35;;;;;;;27.96;26.36;101331.88;4970080;28;20501;-82
2022/08/17 10:43:19;;;;;;;5.05;2.35;;;;;;;28.28;26.98;101303.03;4986578;28;20587;-83
2022/08/17 10:45:54;;;;;;;5.90;2.25;;;;;;;29.59;24.52;101312.88;4981071;28;20039;-83
2022/08/17 10:48:35;;;;;;;7.57;2.13;;;;;;;30.17;23.68;101307.31;4953301;28;20558;-80
2022/08/17 10:51:06;;;;;;;4.90;1.92;;;;;;;29.18;24.23;101320.66;4988722;28;20052;-81
2022/08/17 10:53:31;;;;;;;3.42;1.88;;;;;;;29.66;23.67;101324.44;4974745;28;20121;-80
2022/08/17 10:56:12;;;;;;;6.80;2.50;;;;;;;30.11;24.22;101322.34;4962412;28;20118;-84
2022/08/17 10:58:54;;;;;;;4.20;2.30;;;;;;;30.64;24.26;101322.31;4963505;28;20069;-83
2022/08/17 11:01:32;;;;;;;4.75;2.38;;;;;;;31.03;22.70;101312.91;4977890;28;20034;-81
2022/08/17 11:04:16;;;;;;;5.07;2.40;;;;;;;30.80;22.85;101327.66;4984761;28;20046;-84
2022/08/17 11:07:08;;;;;;;4.55;2.92;;;;;;;30.67;23.45;101332.84;4999167;28;20042;-83
2022/08/17 11:09:58;;;;;;;5.25;2.30;;;;;;;30.23;23.07;101319.22;4983717;28;20042;-81
2022/08/17 11:12:38;;;;;;;3.65;2.63;;;;;;;30.32;23.25;101325.75;4965002;28;20396;-83
2022/08/17 11:15:16;;;;;;;4.18;2.30;;;;;;;29.15;24.77;101316.50;4968806;28;20041;-83
2022/08/17 11:18:06;;;;;;;4.15;2.17;;;;;;;27.45;26.62;101323.59;4991604;28;20062;-82
2022/08/17 11:21:03;;;;;;;5.53;2.30;;;;;;;26.10;28.35;101328.84;4988217;28;20133;-83
2022/08/17 11:23:28;;;;;;;4.55;2.20;;;;;;;26.46;27.18;101325.47;4990413;28;20165;-84
2022/08/17 11:25:57;;;;;;;4.45;2.60;;;;;;;27.07;26.30;101322.97;4965580;28;20050;-82
2022/08/17 11:28:34;;;;;;;5.75;2.28;;;;;;;28.80;25.38;101323.06;4961175;28;20132;-83
2022/08/17 11:31:39;;;;;;;3.45;2.03;;;;;;;29.61;23.86;101324.47;4950360;28;20030;-83
2022/08/17 11:34:17;;;;;;;3.05;2.28;;;;;;;30.66;23.60;101311.72;4979876;28;20030;-83
2022/08/17 11:37:02;;;;;;;4.93;2.72;;;;;;;30.93;23.30;101321.38;4962409;28;20039;-83
2022/08/17 11:39:41;;;;;;;4.68;2.50;;;;;;;30.70;22.99;101317.53;4980149;28;20053;-81
2022/08/17 11:46:12;;;;;;;5.70;2.33;;;;;;;29.92;23.94;101308.41;4978552;28;20069;-79
2022/08/17 11:51:58;;;;;;;5.03;2.40;;;;;;;29.74;26.00;101296.09;4989247;28;20025;-83
2022/08/17 11:54:41;;;;;;;6.53;3.35;;;;;;;29.55;25.80;101293.19;4968802;28;20026;-84
2022/08/17 11:57:25;;;;;;;;;;;;;;;29.64;24.69;101287.91;4969902;28;20043;-82
2022/08/17 11:59:50;;;;;;;3.00;2.20;;;;;;;30.40;23.59;101285.44;4981205;28;20956;-80
2022/08/17 12:02:34;;;;;;;5.25;2.35;;;;;;;30.51;21.39;101291.69;4979037;28;20117;-83
2022/08/17 12:05:11;;;;;;;3.95;2.25;;;;;;;30.94;22.25;101283.38;4968946;28;20034;-84
2022/08/17 12:07:46;;;;;;;3.65;2.47;;;;;;;31.68;22.06;101272.44;4970857;28;20023;-84
2022/08/17 12:10:20;;;;;;;6.15;2.30;;;;;;;32.13;20.40;101267.97;4953879;28;20117;-85
2022/08/17 12:12:47;;;;;;;4.00;2.30;;;;;;;31.89;21.74;101278.47;4978207;28;20026;-85
2022/08/17 12:15:16;;;;;;;6.25;2.55;;;;;;;32.20;21.96;101273.13;4980723;28;20109;-86
2022/08/17 12:17:53;;;;;;;3.97;2.40;;;;;;;32.42;21.27;101283.53;4989842;28;20041;-82
2022/08/17 12:20:27;;;;;;;5.05;2.70;;;;;;;32.39;21.26;101261.88;4985968;28;20030;-86
2022/08/17 12:23:09;;;;;;;4.43;2.60;;;;;;;32.25;21.82;101280.53;4949084;28;20130;-82
2022/08/17 12:25:58;;;;;;;5.90;2.63;;;;;;;32.23;22.12;101280.84;4953088;28;20046;-84
2022/08/17 12:28:32;;;;;;;5.50;2.53;;;;;;;32.95;21.18;101291.28;4958896;28;21028;-85